Flight Briefing for CPX253

Departure Arrival
Fort Worth Alliance Airport (KAFW)
Click to view FAA NOTAMS
Chicago/Rockford International Airport (KRFD)
Click to view FAA NOTAMS
Departure Time Arrival Time
N/A N/A
Aircraft Distance
B767-300BDSF 676nm
Departure METAR Arrival METAR
KAFW 180553Z 36006KT 10SM BKN250 03/M02 A3013 RMK AO2 SLP209 T00331017 10089 20028 401280028 51013 KRFD 180554Z 35009KT 3SM -SN BR OVC055 M07/M09 A3003 RMK AO2 SLP178 P0000 60003 T10671089 11039 21067 410221067 53022
Suggested Route
TEX5 OKM J181 BAYLI J105 BDF


View recent IFR Routes data
Notes



Charts and Procedures

Charts for KAFW
No chart available
Charts for KRFD
No chart available

Ventusky Weather